Inicio METAR Ruta Wind Satelite

Informe Meteorológico

Fecha: 2021/09/21 15:39:05 Local
2021.09.21 20:39 UTC


Operación:
SKNV 212000Z VRB05KT 9999 FEW040 BKN120 35/16 Q1008 RMK/A2978 =